Time;durP1;ratioP1;P1;durP2;ratioP2;P2;SDS_P1;SDS_P2;PMS_P1;PMS_P2;Temp;Humidity;BMP_temperature;BMP_pressure;BME280_temperature;BME280_humidity;BME280_pressure;Samples;Min_cycle;Max_cycle;Signal;HPM_P1;HPM_P2
2023/01/05 00:00:10;;;;;;;0.85;0.38;;;11.30;99.90;;;;;;10135765;28;20031;-65
2023/01/05 00:05:01;;;;;;;0.75;0.35;;;11.20;99.90;;;;;;10131577;28;20063;-69
2023/01/05 00:09:52;;;;;;;0.55;0.50;;;11.20;99.90;;;;;;10132299;28;20429;-64
2023/01/05 00:25:07;;;;;;;2.30;0.38;;;11.20;99.90;;;;;;10135494;28;20038;-63
2023/01/05 00:29:58;;;;;;;0.90;0.40;;;11.20;99.90;;;;;;10135691;28;20098;-70
2023/01/05 00:34:49;;;;;;;0.50;0.30;;;11.30;99.90;;;;;;10134670;28;20048;-68
2023/01/05 00:39:40;;;;;;;0.45;0.20;;;11.30;99.90;;;;;;10135146;28;20093;-68
2023/01/05 00:44:30;;;;;;;0.35;0.25;;;11.30;99.90;;;;;;10134786;28;20096;-68
2023/01/05 00:49:21;;;;;;;0.45;0.30;;;11.30;99.90;;;;;;10133788;28;20047;-66
2023/01/05 00:54:12;;;;;;;0.10;0.10;;;11.40;99.90;;;;;;10134932;28;20498;-65
2023/01/05 00:59:02;;;;;;;0.50;0.25;;;11.40;99.90;;;;;;10134344;28;20032;-64
2023/01/05 01:03:55;;;;;;;0.10;0.10;;;11.40;99.90;;;;;;10134709;28;20192;-63
2023/01/05 01:08:45;;;;;;;0.50;0.45;;;11.40;99.90;;;;;;10141917;28;20020;-63
2023/01/05 01:13:37;;;;;;;0.43;0.20;;;11.40;99.90;;;;;;10141423;28;20076;-64
2023/01/05 01:18:29;;;;;;;0.10;0.10;;;11.50;99.90;;;;;;10140746;28;20096;-67
2023/01/05 01:23:20;;;;;;;0.40;0.22;;;11.50;99.90;;;;;;10140323;28;20396;-64
2023/01/05 01:28:10;;;;;;;1.08;0.00;;;11.50;99.90;;;;;;10140544;28;20101;-66
2023/01/05 01:33:01;;;;;;;0.30;0.15;;;11.50;99.90;;;;;;10140319;28;20116;-66
2023/01/05 01:37:52;;;;;;;1.33;0.20;;;11.60;99.90;;;;;;10140596;28;20052;-63
2023/01/05 01:42:42;;;;;;;0.38;0.20;;;11.50;99.90;;;;;;10139878;28;20021;-62
2023/01/05 01:47:37;;;;;;;0.10;0.03;;;11.50;99.90;;;;;;10140521;28;20309;-62
2023/01/05 01:52:29;;;;;;;0.20;0.20;;;11.50;99.90;;;;;;10139849;28;20037;-63
2023/01/05 01:57:21;;;;;;;0.32;0.20;;;11.50;99.90;;;;;;10134997;28;20039;-63
2023/01/05 02:02:13;;;;;;;0.30;0.30;;;11.50;99.90;;;;;;10139808;28;20383;-64
2023/01/05 02:07:06;;;;;;;0.52;0.20;;;11.60;99.90;;;;;;10139731;28;20035;-65
2023/01/05 02:12:27;;;;;;;0.20;0.10;;;11.60;99.90;;;;;;10139837;28;20081;-62
2023/01/05 02:17:29;;;;;;;0.25;0.22;;;11.60;99.90;;;;;;10136387;28;20039;-65
2023/01/05 02:22:31;;;;;;;0.25;0.13;;;11.60;99.90;;;;;;10137241;28;20063;-64
2023/01/05 02:27:51;;;;;;;0.38;0.20;;;11.70;99.90;;;;;;10138103;28;20593;-63
2023/01/05 02:33:03;;;;;;;0.38;0.30;;;11.70;99.90;;;;;;10137882;28;20491;-63
2023/01/05 02:38:22;;;;;;;0.17;0.10;;;11.70;99.90;;;;;;10138311;28;20555;-66
2023/01/05 02:43:14;;;;;;;0.20;0.20;;;11.70;99.90;;;;;;10135772;28;20044;-64
2023/01/05 02:48:05;;;;;;;1.95;0.30;;;11.70;99.90;;;;;;10138252;28;20043;-65
2023/01/05 02:53:22;;;;;;;0.55;0.20;;;11.70;99.90;;;;;;10137921;28;20055;-63
2023/01/05 02:58:16;;;;;;;0.45;0.22;;;11.70;99.90;;;;;;10137644;28;20032;-67
2023/01/05 03:03:12;;;;;;;0.13;0.13;;;11.70;99.90;;;;;;10136746;28;20310;-66
2023/01/05 03:08:07;;;;;;;0.28;0.15;;;11.70;99.90;;;;;;10137661;28;20345;-64
2023/01/05 03:18:15;;;;;;;0.30;0.15;;;11.60;99.90;;;;;;10136879;28;20409;-64
2023/01/05 03:38:54;;;;;;;0.20;0.20;;;11.80;99.90;;;;;;10136491;28;20314;-63
2023/01/05 03:43:47;;;;;;;0.28;0.28;;;11.70;99.90;;;;;;10135895;28;20024;-65
2023/01/05 03:48:38;;;;;;;0.10;0.10;;;11.80;99.90;;;;;;10134215;28;20081;-63
2023/01/05 03:53:28;;;;;;;0.10;0.10;;;11.80;99.90;;;;;;10135226;28;20403;-65
2023/01/05 03:58:19;;;;;;;0.35;0.20;;;11.80;99.90;;;;;;10135824;28;20461;-64
2023/01/05 04:03:09;;;;;;;0.10;0.10;;;11.90;99.90;;;;;;10133964;28;20028;-63
2023/01/05 04:08:00;;;;;;;0.20;0.20;;;11.90;99.90;;;;;;10132487;28;20024;-62
2023/01/05 04:12:51;;;;;;;0.05;0.05;;;12.00;99.90;;;;;;10131173;28;20048;-62
2023/01/05 04:17:41;;;;;;;0.25;0.10;;;12.00;99.90;;;;;;10135330;28;20033;-62
2023/01/05 04:22:32;;;;;;;0.10;0.10;;;12.00;99.90;;;;;;10134771;28;20387;-63
2023/01/05 04:27:23;;;;;;;0.25;0.10;;;12.10;99.90;;;;;;10135437;28;20470;-63
2023/01/05 04:32:13;;;;;;;0.05;0.05;;;12.10;99.90;;;;;;10116825;28;20031;-63
2023/01/05 04:37:04;;;;;;;0.45;0.10;;;12.10;99.90;;;;;;10134612;28;20087;-63
2023/01/05 04:41:55;;;;;;;0.00;0.00;;;12.10;99.90;;;;;;10140489;28;20025;-63
2023/01/05 04:46:46;;;;;;;0.17;0.10;;;12.10;99.90;;;;;;10141727;28;20016;-62
2023/01/05 04:51:36;;;;;;;0.47;0.20;;;12.10;99.90;;;;;;10143183;28;20017;-63
2023/01/05 04:56:27;;;;;;;0.20;0.10;;;12.10;99.90;;;;;;10142306;28;20513;-64
2023/01/05 05:01:18;;;;;;;0.20;0.10;;;12.10;99.90;;;;;;10140575;28;20032;-63
2023/01/05 05:06:09;;;;;;;0.10;0.10;;;12.10;99.90;;;;;;10136292;28;20067;-63
2023/01/05 05:10:59;;;;;;;0.10;0.10;;;12.10;99.90;;;;;;10142154;28;20021;-70
2023/01/05 05:15:50;;;;;;;0.45;0.13;;;12.00;99.90;;;;;;10140950;28;20087;-65
2023/01/05 05:20:44;;;;;;;2.42;0.30;;;12.00;99.90;;;;;;10141121;28;20423;-62
2023/01/05 05:25:35;;;;;;;0.15;0.10;;;11.90;99.90;;;;;;10139820;28;20410;-65
2023/01/05 05:30:25;;;;;;;0.17;0.10;;;11.90;99.90;;;;;;10141220;28;20009;-62
2023/01/05 05:35:16;;;;;;;0.05;0.05;;;11.80;99.90;;;;;;10141223;28;20498;-63
2023/01/05 05:40:07;;;;;;;0.43;0.40;;;11.80;99.90;;;;;;10140845;28;20034;-64
2023/01/05 05:44:58;;;;;;;0.57;0.10;;;11.70;99.90;;;;;;10140657;28;20663;-68
2023/01/05 05:49:48;;;;;;;0.15;0.15;;;11.70;99.90;;;;;;10141500;28;20100;-72
2023/01/05 05:54:39;;;;;;;0.17;0.13;;;11.70;99.90;;;;;;10139125;28;20032;-63
2023/01/05 05:59:30;;;;;;;0.30;0.20;;;11.70;99.90;;;;;;10139990;28;20025;-65
2023/01/05 06:04:20;;;;;;;0.22;0.20;;;11.70;99.90;;;;;;10137399;28;20060;-64
2023/01/05 06:09:11;;;;;;;1.08;0.63;;;11.70;99.90;;;;;;10137225;28;20024;-64
2023/01/05 06:14:02;;;;;;;0.70;0.30;;;11.70;99.90;;;;;;10136993;28;20105;-65
2023/01/05 06:18:52;;;;;;;0.32;0.30;;;11.70;99.90;;;;;;10139071;28;20040;-69
2023/01/05 06:23:43;;;;;;;0.50;0.40;;;11.80;99.90;;;;;;10138786;28;20119;-69
2023/01/05 06:28:34;;;;;;;0.10;0.10;;;11.90;99.90;;;;;;10138559;28;20016;-70
2023/01/05 06:33:24;;;;;;;0.47;0.35;;;12.00;99.90;;;;;;10136599;28;20097;-68
2023/01/05 06:38:15;;;;;;;0.30;0.20;;;12.10;99.90;;;;;;10139390;28;20662;-67
2023/01/05 06:43:06;;;;;;;0.85;0.38;;;12.10;99.90;;;;;;10137613;28;20399;-69
2023/01/05 06:47:57;;;;;;;0.22;0.20;;;12.20;99.90;;;;;;10137564;28;20021;-68
2023/01/05 06:52:48;;;;;;;2.10;0.20;;;12.20;99.90;;;;;;10138116;28;20124;-71
2023/01/05 06:57:38;;;;;;;0.30;0.30;;;12.30;99.90;;;;;;10136719;28;20039;-70
2023/01/05 07:02:29;;;;;;;1.52;0.65;;;12.20;99.90;;;;;;10136543;28;20770;-62
2023/01/05 07:07:20;;;;;;;1.42;0.70;;;12.20;99.90;;;;;;10136560;28;20376;-63
2023/01/05 07:12:10;;;;;;;1.08;0.50;;;12.20;99.90;;;;;;10136274;28;20032;-64
2023/01/05 07:17:01;;;;;;;0.95;0.40;;;12.20;99.90;;;;;;10136600;28;20131;-63
2023/01/05 07:21:51;;;;;;;1.20;0.80;;;12.20;99.90;;;;;;10135881;28;20424;-67
2023/01/05 07:26:42;;;;;;;0.70;0.70;;;12.20;99.90;;;;;;10135351;28;20119;-66
2023/01/05 07:31:33;;;;;;;1.58;0.75;;;12.20;99.90;;;;;;10136955;28;20162;-66
2023/01/05 07:36:24;;;;;;;1.10;0.75;;;12.20;99.90;;;;;;10134693;28;20048;-65
2023/01/05 07:41:14;;;;;;;1.52;0.70;;;12.20;99.90;;;;;;10134127;28;20047;-63
2023/01/05 07:46:05;;;;;;;1.58;0.68;;;12.20;99.90;;;;;;10131990;28;20499;-64
2023/01/05 07:51:04;;;;;;;0.88;0.57;;;12.20;99.90;;;;;;10133639;28;20021;-66
2023/01/05 07:56:00;;;;;;;2.05;1.13;;;12.30;99.90;;;;;;10130517;28;20029;-66
2023/01/05 08:00:51;;;;;;;1.48;0.98;;;12.30;99.90;;;;;;10132412;28;20112;-66
2023/01/05 08:05:41;;;;;;;2.00;0.75;;;12.40;99.90;;;;;;10133602;28;20124;-65
2023/01/05 08:10:32;;;;;;;4.30;1.10;;;12.40;99.90;;;;;;10133078;28;20289;-65
2023/01/05 08:15:23;;;;;;;1.13;0.80;;;12.50;99.90;;;;;;10136755;28;20032;-66
2023/01/05 08:20:13;;;;;;;3.50;0.82;;;12.50;99.90;;;;;;10143333;28;20094;-63
2023/01/05 08:25:04;;;;;;;2.85;0.90;;;12.60;99.90;;;;;;10143297;28;20480;-63
2023/01/05 08:29:55;;;;;;;1.52;1.02;;;12.60;99.90;;;;;;10141591;28;20021;-65
2023/01/05 08:34:46;;;;;;;5.30;2.10;;;12.50;99.90;;;;;;10139473;28;20081;-63
2023/01/05 08:39:37;;;;;;;3.15;1.58;;;12.50;99.90;;;;;;10141801;28;20098;-64
2023/01/05 08:44:27;;;;;;;4.35;1.75;;;12.60;99.90;;;;;;10140152;28;20029;-64
2023/01/05 08:49:18;;;;;;;3.55;1.00;;;12.60;99.90;;;;;;10139570;28;20314;-62
2023/01/05 08:54:09;;;;;;;4.43;1.15;;;12.60;99.90;;;;;;10139093;28;20033;-62
2023/01/05 08:58:59;;;;;;;4.78;1.88;;;12.70;99.90;;;;;;10139401;28;20569;-62
2023/01/05 09:03:50;;;;;;;6.45;2.30;;;12.70;99.90;;;;;;10141670;28;20023;-63
2023/01/05 09:08:42;;;;;;;5.00;1.63;;;12.70;99.90;;;;;;10140289;28;20024;-65
2023/01/05 09:13:32;;;;;;;8.10;2.80;;;12.80;99.90;;;;;;10141459;28;20367;-61
2023/01/05 09:18:23;;;;;;;7.53;1.70;;;12.80;99.90;;;;;;10137346;28;20024;-63
2023/01/05 09:23:14;;;;;;;8.48;2.50;;;12.90;99.90;;;;;;10141054;28;20049;-65
2023/01/05 09:28:04;;;;;;;6.78;1.70;;;13.00;99.90;;;;;;10140110;28;20107;-64
2023/01/05 09:32:55;;;;;;;5.97;2.25;;;13.00;99.90;;;;;;10138959;28;20058;-64
2023/01/05 09:37:45;;;;;;;5.95;1.90;;;13.10;99.90;;;;;;10139862;28;20036;-64
2023/01/05 09:42:42;;;;;;;6.65;2.00;;;13.10;99.90;;;;;;10138647;28;20025;-63
2023/01/05 09:47:38;;;;;;;3.53;1.60;;;13.10;99.90;;;;;;10135309;28;20093;-63
2023/01/05 09:52:29;;;;;;;7.35;1.77;;;13.10;99.90;;;;;;10140852;28;20048;-62
2023/01/05 09:57:25;;;;;;;10.25;1.58;;;13.10;99.90;;;;;;10133848;28;20410;-61
2023/01/05 10:02:33;;;;;;;18.00;3.15;;;13.20;99.90;;;;;;10139478;28;20017;-62
2023/01/05 10:07:40;;;;;;;6.43;1.75;;;13.20;99.90;;;;;;10138256;28;20029;-64
2023/01/05 10:17:51;;;;;;;7.53;3.33;;;13.30;99.90;;;;;;10135477;28;20039;-65
2023/01/05 10:23:03;;;;;;;5.57;1.45;;;13.30;99.90;;;;;;10134973;28;20132;-64
2023/01/05 10:28:15;;;;;;;4.10;1.50;;;13.30;99.90;;;;;;10138174;28;20039;-68
2023/01/05 10:33:11;;;;;;;6.38;2.70;;;13.40;99.90;;;;;;10134215;28;20021;-64
2023/01/05 10:38:13;;;;;;;6.05;1.85;;;13.50;99.90;;;;;;10136328;28;20056;-65
2023/01/05 10:43:34;;;;;;;8.10;1.80;;;13.60;99.90;;;;;;10135166;28;20029;-63
2023/01/05 10:48:33;;;;;;;3.75;2.05;;;13.60;99.90;;;;;;10133200;28;20020;-65
2023/01/05 10:53:26;;;;;;;5.88;1.42;;;13.80;99.90;;;;;;10136074;28;20024;-64
2023/01/05 10:58:42;;;;;;;4.00;1.50;;;13.90;99.90;;;;;;10134234;28;20044;-68
2023/01/05 11:03:34;;;;;;;;;;;14.20;99.90;;;;;;10131452;28;20561;-69
2023/01/05 11:08:28;;;;;;;4.53;2.15;;;14.10;99.90;;;;;;10133254;28;19914;-65
2023/01/05 11:13:33;;;;;;;5.57;1.50;;;14.30;99.90;;;;;;10133807;28;20028;-66
2023/01/05 11:18:49;;;;;;;5.28;1.95;;;14.30;99.90;;;;;;10134746;28;20021;-62
2023/01/05 11:23:48;;;;;;;6.25;2.40;;;14.30;99.90;;;;;;10133834;28;20063;-68
2023/01/05 11:29:00;;;;;;;10.43;2.42;;;14.30;99.90;;;;;;10134695;28;20077;-70
2023/01/05 11:33:57;;;;;;;4.35;1.40;;;14.30;99.90;;;;;;10148442;28;20470;-65
2023/01/05 11:38:56;;;;;;;6.45;1.70;;;14.30;99.90;;;;;;10134094;28;20153;-59
2023/01/05 11:43:48;;;;;;;3.58;1.45;;;14.30;99.90;;;;;;10133150;28;20471;-64
2023/01/05 11:48:38;;;;;;;5.60;1.27;;;14.20;99.90;;;;;;10132788;28;20417;-61
2023/01/05 11:53:38;;;;;;;7.50;2.20;;;14.30;99.90;;;;;;10135459;28;20032;-67
2023/01/05 11:58:43;;;;;;;6.20;1.75;;;14.50;99.90;;;;;;10136229;28;20108;-61
2023/01/05 12:03:47;;;;;;;5.55;1.60;;;14.40;99.90;;;;;;10134288;28;20086;-65
2023/01/05 12:08:46;;;;;;;5.00;1.48;;;14.40;99.90;;;;;;10128462;28;20200;-62
2023/01/05 12:14:01;;;;;;;5.07;2.08;;;14.40;99.90;;;;;;10129959;28;20517;-62
2023/01/05 12:19:13;;;;;;;4.53;1.90;;;14.50;99.90;;;;;;10128309;28;20029;-60
2023/01/05 12:24:07;;;;;;;5.65;2.38;;;14.60;99.90;;;;;;10134956;28;20189;-59
2023/01/05 12:29:31;;;;;;;5.90;1.70;;;14.70;99.90;;;;;;10134504;28;20032;-63
2023/01/05 12:34:59;;;;;;;7.35;1.63;;;14.70;99.90;;;;;;10133426;28;20067;-64
2023/01/05 12:40:15;;;;;;;5.30;1.52;;;14.60;99.90;;;;;;10132892;28;20686;-60
2023/01/05 12:45:26;;;;;;;2.47;0.90;;;14.50;99.90;;;;;;10132953;28;20030;-60
2023/01/05 12:50:26;;;;;;;3.80;1.50;;;14.50;99.90;;;;;;10130907;28;20228;-61
2023/01/05 12:55:22;;;;;;;3.22;1.33;;;14.50;99.90;;;;;;10132924;28;20462;-61
2023/01/05 13:00:18;;;;;;;10.88;1.80;;;14.60;99.90;;;;;;10136446;28;20025;-60
2023/01/05 13:05:33;;;;;;;4.97;1.50;;;14.50;99.90;;;;;;10141465;28;20375;-63
2023/01/05 13:10:59;;;;;;;8.43;1.90;;;14.50;99.90;;;;;;10141118;28;20090;-61
2023/01/05 13:16:07;;;;;;;4.63;1.20;;;14.50;99.90;;;;;;10140161;28;20568;-62
2023/01/05 13:21:03;;;;;;;9.43;2.60;;;14.40;99.90;;;;;;10134919;28;20051;-61
2023/01/05 13:26:15;;;;;;;3.67;1.15;;;14.30;99.90;;;;;;10140376;28;20051;-59
2023/01/05 13:31:33;;;;;;;4.68;1.48;;;14.30;99.90;;;;;;10139286;28;20020;-61
2023/01/05 13:36:48;;;;;;;1.95;0.88;;;14.20;99.90;;;;;;10139975;28;20036;-60
2023/01/05 13:42:10;;;;;;;2.88;1.52;;;14.20;99.90;;;;;;10135953;28;20427;-60
2023/01/05 13:47:21;;;;;;;4.63;1.17;;;14.20;99.90;;;;;;10136181;28;20044;-59
2023/01/05 13:52:49;;;;;;;5.10;1.20;;;14.20;99.90;;;;;;10138121;28;20031;-61
2023/01/05 13:57:42;;;;;;;5.82;1.33;;;14.10;99.90;;;;;;10130084;28;20116;-59
2023/01/05 14:02:42;;;;;;;9.63;2.65;;;14.10;99.90;;;;;;10137374;28;20047;-60
2023/01/05 14:07:38;;;;;;;5.90;1.35;;;14.10;99.90;;;;;;10137574;28;20031;-59
2023/01/05 14:12:45;;;;;;;2.92;1.05;;;14.10;99.90;;;;;;10134658;28;20024;-57
2023/01/05 14:17:51;;;;;;;4.57;1.55;;;14.10;99.90;;;;;;10136583;28;20047;-58
2023/01/05 14:22:42;;;;;;;2.60;1.00;;;14.00;99.90;;;;;;10135791;28;20037;-62
2023/01/05 14:28:13;;;;;;;7.60;1.77;;;14.00;99.90;;;;;;10136650;28;20050;-60
2023/01/05 14:33:05;;;;;;;2.30;1.00;;;14.00;99.90;;;;;;10135522;28;20051;-60
2023/01/05 14:38:13;;;;;;;4.60;1.38;;;14.00;99.90;;;;;;10134743;28;20012;-59
2023/01/05 14:43:26;;;;;;;3.80;1.52;;;14.00;99.90;;;;;;10136101;28;20032;-59
2023/01/05 14:48:53;;;;;;;4.50;1.60;;;14.00;99.90;;;;;;10138442;28;20052;-64
2023/01/05 14:53:48;;;;;;;4.28;1.20;;;14.00;99.90;;;;;;10134438;28;20063;-66
2023/01/05 14:58:41;;;;;;;1.60;1.20;;;14.10;99.90;;;;;;10137439;28;20062;-62
2023/01/05 15:03:54;;;;;;;4.07;2.45;;;14.10;99.90;;;;;;10135623;28;20047;-65
2023/01/05 15:09:03;;;;;;;4.72;1.45;;;14.10;99.90;;;;;;10131146;28;20053;-64
2023/01/05 15:14:33;;;;;;;4.43;1.60;;;14.00;99.90;;;;;;10131828;28;20024;-64
2023/01/05 15:20:01;;;;;;;4.13;1.33;;;14.00;99.90;;;;;;10133468;28;20251;-66
2023/01/05 15:25:28;;;;;;;2.28;1.17;;;14.00;99.90;;;;;;10147578;28;20037;-66
2023/01/05 15:30:58;;;;;;;3.88;2.10;;;14.00;99.90;;;;;;10133506;28;20490;-63
2023/01/05 15:36:02;;;;;;;9.23;1.80;;;14.00;99.90;;;;;;10132324;28;20040;-66
2023/01/05 15:41:03;;;;;;;3.30;2.22;;;14.00;99.90;;;;;;10134603;28;20028;-64
2023/01/05 15:45:54;;;;;;;5.13;3.08;;;14.00;99.90;;;;;;10132628;28;20016;-65
2023/01/05 15:50:49;;;;;;;4.72;1.83;;;14.00;99.90;;;;;;10133587;28;20177;-62
2023/01/05 15:55:42;;;;;;;;;;;14.00;99.90;;;;;;10134132;28;20029;-61
2023/01/05 16:00:35;;;;;;;4.60;1.70;;;14.00;99.90;;;;;;10135434;28;20001;-61
2023/01/05 16:05:29;;;;;;;2.70;1.38;;;14.00;99.90;;;;;;10130446;28;20032;-63
2023/01/05 16:10:34;;;;;;;3.85;1.80;;;14.00;99.90;;;;;;10132745;28;20021;-62
2023/01/05 16:15:25;;;;;;;6.95;2.63;;;14.00;99.90;;;;;;10129894;28;20086;-61
2023/01/05 16:20:21;;;;;;;6.60;2.20;;;14.00;99.90;;;;;;10125764;28;20522;-67
2023/01/05 16:25:26;;;;;;;4.32;2.10;;;14.00;99.90;;;;;;10134947;28;20029;-61
2023/01/05 16:30:36;;;;;;;7.80;2.00;;;14.00;99.90;;;;;;10134119;28;20032;-65
2023/01/05 16:35:33;;;;;;;6.25;2.33;;;13.90;99.90;;;;;;10135694;28;20103;-60
2023/01/05 16:40:24;;;;;;;4.97;2.08;;;13.90;99.90;;;;;;10141889;28;20024;-63
2023/01/05 16:45:23;;;;;;;8.75;5.43;;;13.90;99.90;;;;;;10138920;28;20437;-63
2023/01/05 16:50:17;;;;;;;9.07;3.88;;;13.80;99.90;;;;;;10141663;28;20043;-64
2023/01/05 16:55:35;;;;;;;9.95;4.03;;;13.90;99.90;;;;;;10142433;28;20542;-63
2023/01/05 17:00:28;;;;;;;3.70;2.03;;;13.80;99.90;;;;;;10142834;28;20406;-64
2023/01/05 17:05:24;;;;;;;4.55;1.77;;;13.80;99.90;;;;;;10142293;28;20111;-66
2023/01/05 17:10:22;;;;;;;9.50;4.45;;;13.70;99.90;;;;;;10141047;28;20037;-63
2023/01/05 17:15:21;;;;;;;5.95;3.85;;;13.80;99.90;;;;;;10137736;28;20044;-62
2023/01/05 17:20:12;;;;;;;4.93;3.53;;;13.80;99.90;;;;;;10135578;28;20045;-61
2023/01/05 17:25:03;;;;;;;14.48;7.03;;;13.70;99.90;;;;;;10139446;28;20414;-65
2023/01/05 17:29:54;;;;;;;7.68;3.60;;;13.70;99.90;;;;;;10139266;28;20038;-61
2023/01/05 17:34:45;;;;;;;8.05;3.10;;;13.60;99.90;;;;;;10138068;28;20586;-63
2023/01/05 17:39:35;;;;;;;5.78;2.95;;;13.50;99.90;;;;;;10139350;28;20019;-64
2023/01/05 17:44:26;;;;;;;9.32;3.17;;;13.50;99.90;;;;;;10136888;28;20490;-60
2023/01/05 17:49:20;;;;;;;6.90;2.85;;;13.50;99.90;;;;;;10136680;28;20059;-61
2023/01/05 17:54:11;;;;;;;7.97;3.55;;;13.40;99.90;;;;;;10136008;28;20410;-65
2023/01/05 17:59:03;;;;;;;8.23;4.18;;;13.40;99.90;;;;;;10138459;28;20015;-63
2023/01/05 18:03:54;;;;;;;6.53;3.03;;;13.40;99.90;;;;;;10138055;28;20059;-65
2023/01/05 18:08:44;;;;;;;4.60;2.65;;;13.40;99.90;;;;;;10137772;28;20089;-63
2023/01/05 18:13:35;;;;;;;5.75;3.17;;;13.40;99.90;;;;;;10136114;28;20080;-63
2023/01/05 18:18:26;;;;;;;6.03;2.88;;;13.40;99.90;;;;;;10136182;28;20495;-62
2023/01/05 18:23:18;;;;;;;5.47;2.88;;;13.30;99.90;;;;;;10136703;28;20494;-65
2023/01/05 18:28:09;;;;;;;4.80;2.25;;;13.30;99.90;;;;;;10137254;28;20438;-67
2023/01/05 18:33:00;;;;;;;3.00;2.10;;;13.20;99.90;;;;;;10134691;28;20064;-64
2023/01/05 18:37:53;;;;;;;6.68;4.47;;;13.20;99.90;;;;;;10138099;28;20038;-66
2023/01/05 18:42:44;;;;;;;6.97;3.72;;;13.20;99.90;;;;;;10132966;28;20048;-62
2023/01/05 18:47:34;;;;;;;6.10;3.22;;;13.20;99.90;;;;;;10135157;28;20044;-62
2023/01/05 18:52:27;;;;;;;4.50;2.80;;;13.20;99.90;;;;;;10135051;28;20028;-60
2023/01/05 18:57:17;;;;;;;8.30;3.33;;;13.10;99.90;;;;;;10135480;28;20067;-64
2023/01/05 19:02:13;;;;;;;7.03;3.63;;;13.10;99.90;;;;;;10135888;28;20024;-66
2023/01/05 19:07:03;;;;;;;7.30;4.38;;;13.10;99.90;;;;;;10137215;28;20016;-63
2023/01/05 19:11:54;;;;;;;5.18;3.00;;;13.10;99.90;;;;;;10133276;28;20032;-66
2023/01/05 19:16:46;;;;;;;4.00;2.75;;;13.10;99.90;;;;;;10136797;28;20222;-67
2023/01/05 19:21:39;;;;;;;3.40;2.00;;;13.00;99.90;;;;;;10126828;28;20055;-65
2023/01/05 19:26:31;;;;;;;3.67;2.03;;;12.90;99.90;;;;;;10137378;28;20086;-66
2023/01/05 19:31:22;;;;;;;7.65;3.10;;;12.80;99.90;;;;;;10136185;28;20116;-64
2023/01/05 19:36:16;;;;;;;7.20;3.50;;;12.80;99.90;;;;;;10135011;28;20048;-65
2023/01/05 19:41:16;;;;;;;4.30;2.58;;;12.80;99.90;;;;;;10136011;28;20044;-64
2023/01/05 19:46:12;;;;;;;5.45;2.47;;;12.80;99.90;;;;;;10133323;28;20255;-65
2023/01/05 19:51:20;;;;;;;3.25;2.00;;;12.70;99.90;;;;;;10129618;28;20536;-70
2023/01/05 19:56:13;;;;;;;3.83;2.50;;;12.80;99.90;;;;;;10134304;28;20431;-68
2023/01/05 20:01:12;;;;;;;4.57;2.40;;;12.80;99.90;;;;;;10135376;28;20116;-69
2023/01/05 20:06:08;;;;;;;3.95;1.92;;;12.80;99.90;;;;;;10135367;28;20037;-66
2023/01/05 20:11:08;;;;;;;3.33;2.35;;;12.80;99.90;;;;;;10128787;28;20471;-64
2023/01/05 20:16:09;;;;;;;3.63;2.17;;;12.80;99.90;;;;;;10130016;28;20033;-64
2023/01/05 20:21:00;;;;;;;7.38;3.97;;;12.70;99.90;;;;;;10122420;28;20144;-65
2023/01/05 20:25:51;;;;;;;5.80;3.58;;;12.70;99.90;;;;;;10134055;28;20020;-63
2023/01/05 20:30:42;;;;;;;7.43;3.83;;;12.90;99.90;;;;;;10133979;28;20032;-63
2023/01/05 20:35:33;;;;;;;5.20;2.20;;;12.80;99.90;;;;;;10136194;28;20051;-65
2023/01/05 20:40:24;;;;;;;3.67;2.30;;;12.80;99.90;;;;;;10134344;28;20021;-72
2023/01/05 20:45:14;;;;;;;3.40;2.00;;;12.80;99.90;;;;;;10121376;28;20471;-65
2023/01/05 20:50:05;;;;;;;3.65;1.58;;;12.80;99.90;;;;;;10133862;28;20112;-71
2023/01/05 20:54:56;;;;;;;3.85;2.03;;;12.70;99.90;;;;;;10134610;28;20119;-68
2023/01/05 20:59:47;;;;;;;2.33;1.85;;;12.80;99.90;;;;;;10134786;28;20505;-68
2023/01/05 21:04:41;;;;;;;5.40;2.15;;;12.80;99.90;;;;;;10133231;28;20521;-67
2023/01/05 21:09:32;;;;;;;3.90;3.13;;;12.80;99.90;;;;;;10133205;28;20012;-67
2023/01/05 21:14:23;;;;;;;3.95;2.15;;;12.80;99.90;;;;;;10132938;28;20032;-67
2023/01/05 21:19:16;;;;;;;4.05;2.10;;;12.80;99.90;;;;;;10124709;28;20033;-72
2023/01/05 21:24:08;;;;;;;3.42;1.85;;;12.80;99.90;;;;;;10137889;28;20025;-68
2023/01/05 21:28:59;;;;;;;3.72;1.83;;;12.80;99.90;;;;;;10138336;28;20071;-69
2023/01/05 21:33:50;;;;;;;4.40;2.35;;;12.80;99.90;;;;;;10141214;28;20056;-69
2023/01/05 21:38:41;;;;;;;3.05;2.00;;;12.80;99.90;;;;;;10149391;28;20103;-67
2023/01/05 21:43:33;;;;;;;3.95;1.92;;;12.80;99.90;;;;;;10140020;28;20052;-67
2023/01/05 21:48:24;;;;;;;4.18;1.95;;;12.70;99.90;;;;;;10139003;28;20032;-63
2023/01/05 21:58:25;;;;;;;3.45;1.73;;;12.80;99.90;;;;;;10140577;28;20402;-64
2023/01/05 22:03:15;;;;;;;5.38;2.50;;;12.70;99.90;;;;;;10140060;28;20017;-64
2023/01/05 22:08:06;;;;;;;4.57;2.30;;;12.70;99.90;;;;;;10139841;28;20483;-63
2023/01/05 22:12:57;;;;;;;3.92;1.90;;;12.70;99.90;;;;;;10139078;28;20381;-63
2023/01/05 22:17:47;;;;;;;4.53;1.98;;;12.70;99.90;;;;;;10131744;28;20056;-63
2023/01/05 22:22:38;;;;;;;2.88;1.42;;;12.70;99.90;;;;;;10137261;28;20396;-64
2023/01/05 22:27:28;;;;;;;3.30;2.10;;;12.60;99.90;;;;;;10137795;28;20187;-63
2023/01/05 22:32:19;;;;;;;4.05;1.98;;;12.50;99.90;;;;;;10136874;28;20025;-64
2023/01/05 22:37:10;;;;;;;3.45;2.20;;;12.50;99.90;;;;;;10137540;28;20048;-63
2023/01/05 22:42:00;;;;;;;5.65;2.17;;;12.50;99.90;;;;;;10139063;28;20020;-64
2023/01/05 22:46:51;;;;;;;3.00;1.63;;;12.50;99.90;;;;;;10131989;28;20107;-64
2023/01/05 22:51:42;;;;;;;3.50;1.95;;;12.40;99.90;;;;;;10135588;28;20486;-63
2023/01/05 22:56:33;;;;;;;3.50;1.60;;;12.40;99.90;;;;;;10137718;28;20036;-63
2023/01/05 23:01:37;;;;;;;5.43;1.80;;;12.40;99.90;;;;;;10137060;28;20066;-64
2023/01/05 23:06:28;;;;;;;6.63;1.98;;;12.40;99.90;;;;;;10138013;28;20035;-64
2023/01/05 23:11:26;;;;;;;3.45;1.70;;;12.40;99.90;;;;;;10133762;28;20035;-64
2023/01/05 23:16:16;;;;;;;4.03;1.77;;;12.30;99.90;;;;;;10136705;28;20042;-65
2023/01/05 23:21:09;;;;;;;3.53;1.85;;;12.40;99.90;;;;;;10127450;28;20574;-64
2023/01/05 23:26:00;;;;;;;4.38;2.45;;;12.40;99.90;;;;;;10136163;28;20032;-64
2023/01/05 23:30:53;;;;;;;2.75;1.48;;;12.50;99.90;;;;;;10136240;28;20025;-63
2023/01/05 23:35:45;;;;;;;2.40;1.55;;;12.50;99.90;;;;;;10136204;28;20021;-63
2023/01/05 23:40:47;;;;;;;2.65;1.77;;;12.40;99.90;;;;;;10135958;28;20498;-64
2023/01/05 23:45:38;;;;;;;2.72;1.55;;;12.40;99.90;;;;;;10135318;28;20032;-65
2023/01/05 23:50:29;;;;;;;5.05;1.80;;;12.40;99.90;;;;;;10131250;28;20056;-64
2023/01/05 23:55:20;;;;;;;2.58;1.67;;;12.40;99.90;;;;;;10136151;28;20579;-63
